Time;durP1;ratioP1;P1;durP2;ratioP2;P2;SDS_P1;SDS_P2;PMS_P1;PMS_P2;Temp;Humidity;BMP_temperature;BMP_pressure;BME280_temperature;BME280_humidity;BME280_pressure;Samples;Min_cycle;Max_cycle;Signal;HPM_P1;HPM_P2
2023/02/07 00:01:16;;;;;;;4.53;4.15;;;;;;;-0.69;100.00;103442.72;6022102;23;20113;-70
2023/02/07 00:03:44;;;;;;;3.10;3.00;;;;;;;-1.13;100.00;103377.41;6026719;23;20419;-70
2023/02/07 00:06:16;;;;;;;3.95;3.75;;;;;;;-0.59;100.00;103467.16;6047142;23;20389;-68
2023/02/07 00:08:43;;;;;;;;;;;;;;;-0.58;100.00;103460.28;6036048;23;20030;-70
2023/02/07 00:11:15;;;;;;;3.25;3.15;;;;;;;-1.06;100.00;103373.41;6017644;23;19911;-72
2023/02/07 00:13:43;;;;;;;4.18;3.88;;;;;;;-0.83;100.00;103424.13;6050685;23;20037;-70
2023/02/07 00:16:13;;;;;;;3.17;3.00;;;;;;;-0.71;100.00;103462.41;6050751;23;20022;-70
2023/02/07 00:18:40;;;;;;;4.13;3.83;;;;;;;-0.69;100.00;103463.34;5999621;23;20065;-70
2023/02/07 00:21:15;;;;;;;2.88;2.78;;;;;;;-0.79;100.00;103456.06;6050719;23;20116;-70
2023/02/07 00:23:42;;;;;;;3.92;3.65;;;;;;;-0.92;100.00;103454.72;6002941;23;20023;-70
2023/02/07 00:26:13;;;;;;;2.80;2.70;;;;;;;-0.95;100.00;103466.59;6051212;23;20663;-70
2023/02/07 00:28:40;;;;;;;3.83;3.53;;;;;;;-1.07;100.00;103454.97;6018417;23;20195;-70
2023/02/07 00:31:08;;;;;;;3.40;3.20;;;;;;;-1.89;100.00;103341.69;6029036;23;20677;-70
2023/02/07 00:33:37;;;;;;;3.15;2.95;;;;;;;-1.22;100.00;103470.69;5999867;23;20026;-68
2023/02/07 00:36:08;;;;;;;2.95;2.67;;;;;;;-1.29;100.00;103465.22;6025646;23;20085;-70
2023/02/07 00:38:35;;;;;;;2.67;2.58;;;;;;;-1.79;100.00;103403.03;6002468;23;20023;-70
2023/02/07 00:41:02;;;;;;;3.20;3.00;;;;;;;-1.89;100.00;103391.47;6054662;23;20553;-70
2023/02/07 00:43:29;;;;;;;2.75;2.65;;;;;;;-1.90;100.00;103370.84;6020646;23;20545;-70
2023/02/07 00:46:00;;;;;;;2.83;2.72;;;;;;;-1.78;100.00;103404.81;6054014;23;20349;-71
2023/02/07 00:48:29;;;;;;;2.70;2.55;;;;;;;-1.99;100.00;103352.44;6051073;23;20457;-70
2023/02/07 00:50:57;;;;;;;3.47;3.28;;;;;;;-1.72;100.00;103370.75;6032907;23;20477;-70
2023/02/07 00:53:24;;;;;;;4.15;3.22;;;;;;;-2.05;100.00;103311.88;6025685;23;20030;-70
2023/02/07 00:55:51;;;;;;;3.22;3.03;;;;;;;-1.23;100.00;103462.91;6051750;23;20044;-70
2023/02/07 00:58:18;;;;;;;3.10;2.90;;;;;;;-1.41;100.00;103414.06;6024212;23;20299;-70
2023/02/07 01:00:44;;;;;;;2.95;2.85;;;;;;;-1.43;100.00;103405.41;6055825;23;20107;-70
2023/02/07 01:03:11;;;;;;;2.83;2.72;;;;;;;-1.01;100.00;103462.06;6051229;23;20040;-70
2023/02/07 01:05:37;;;;;;;2.70;2.60;;;;;;;-1.32;100.00;103400.66;6033516;23;20146;-71
2023/02/07 01:08:04;;;;;;;3.55;3.25;;;;;;;-1.44;100.00;103367.59;6034845;23;20530;-71
2023/02/07 01:10:31;;;;;;;12.85;3.20;;;;;;;-0.95;100.00;103464.91;6022088;23;20604;-71
2023/02/07 01:12:58;;;;;;;2.58;2.45;;;;;;;-0.85;100.00;103456.69;6048398;23;20018;-70
2023/02/07 01:15:25;;;;;;;3.13;3.03;;;;;;;-0.87;100.00;103457.47;6052922;23;20530;-70
2023/02/07 01:17:52;;;;;;;2.80;2.70;;;;;;;-0.95;100.00;103457.16;6054979;23;20210;-71
2023/02/07 01:20:18;;;;;;;2.70;2.60;;;;;;;-1.40;100.00;103392.66;6008915;23;20532;-70
2023/02/07 01:22:44;;;;;;;3.30;3.10;;;;;;;-1.62;100.00;103341.97;6058663;23;20480;-71
2023/02/07 01:25:11;;;;;;;3.53;3.25;;;;;;;-1.46;100.00;103372.69;6036384;23;20023;-71
2023/02/07 01:27:37;;;;;;;3.00;2.85;;;;;;;-0.93;100.00;103459.81;6030247;23;20481;-71
2023/02/07 01:30:04;;;;;;;3.03;2.83;;;;;;;-1.19;100.00;103428.69;6058387;23;20492;-70
2023/02/07 01:32:32;;;;;;;3.05;2.85;;;;;;;-0.87;100.00;103468.66;6007686;23;20026;-71
2023/02/07 01:34:58;;;;;;;3.10;2.90;;;;;;;-0.98;100.00;103449.31;6057763;23;20274;-71
2023/02/07 01:37:26;;;;;;;3.75;3.03;;;;;;;-1.40;100.00;103387.50;6002688;23;20053;-70
2023/02/07 01:39:53;;;;;;;3.10;2.88;;;;;;;-0.98;100.00;103461.31;6056710;23;20068;-71
2023/02/07 01:42:22;;;;;;;3.40;3.10;;;;;;;-0.96;100.00;103452.84;6027537;23;20038;-72
2023/02/07 01:44:49;;;;;;;2.80;2.70;;;;;;;-0.89;100.00;103467.72;6060111;23;20014;-71
2023/02/07 01:47:18;;;;;;;3.20;3.10;;;;;;;-1.09;100.00;103446.28;6039747;23;20097;-70
2023/02/07 01:49:46;;;;;;;5.30;3.35;;;;;;;-1.68;100.00;103346.88;6052333;23;20042;-70
2023/02/07 01:52:17;;;;;;;3.00;2.85;;;;;;;-1.48;100.00;103392.34;6037631;23;20030;-70
2023/02/07 01:54:48;;;;;;;4.00;3.70;;;;;;;-1.02;100.00;103462.91;6053078;23;20030;-70
2023/02/07 01:57:18;;;;;;;4.07;3.67;;;;;;;-1.02;100.00;103473.22;6061171;23;20060;-70
2023/02/07 01:59:45;;;;;;;2.83;2.72;;;;;;;-2.56;100.00;103198.28;6001794;23;20198;-70
2023/02/07 02:02:14;;;;;;;2.78;2.67;;;;;;;-1.78;100.00;103335.31;6058814;23;20497;-69
2023/02/07 02:04:41;;;;;;;3.78;3.50;;;;;;;-1.41;100.00;103417.50;6026276;23;20023;-70
2023/02/07 02:07:10;;;;;;;2.72;2.58;;;;;;;-1.05;100.00;103475.66;6051943;23;20034;-70
2023/02/07 02:09:37;;;;;;;2.50;2.40;;;;;;;-1.11;100.00;103470.25;6055998;23;20450;-70
2023/02/07 02:12:06;;;;;;;2.92;2.83;;;;;;;-1.29;100.00;103475.53;6064260;23;20067;-70
2023/02/07 02:14:59;;;;;;;2.63;2.53;;;;;;;-1.49;100.00;103511.63;6051166;23;20031;-70
2023/02/07 02:17:36;;;;;;;2.60;2.50;;;;;;;-1.82;100.00;103454.41;6052871;23;20093;-71
2023/02/07 02:20:36;;;;;;;2.80;2.70;;;;;;;-1.80;100.00;103475.94;6052687;23;20226;-70
2023/02/07 02:23:37;;;;;;;6.20;3.67;;;;;;;-1.96;100.00;103492.41;6020525;23;20034;-71
2023/02/07 02:26:32;;;;;;;2.90;2.72;;;;;;;-2.09;100.00;103472.94;6053476;23;20512;-71
2023/02/07 02:29:11;;;;;;;3.08;2.97;;;;;;;-2.36;100.00;103443.44;6013608;23;20147;-71
2023/02/07 02:32:07;;;;;;;2.63;2.45;;;;;;;-2.16;100.00;103477.78;6025351;23;20162;-71
2023/02/07 02:34:49;;;;;;;2.90;2.80;;;;;;;-2.70;100.00;103400.75;6018165;23;20101;-71
2023/02/07 02:37:34;;;;;;;3.58;3.38;;;;;;;-2.30;100.00;103484.84;6026001;23;20037;-70
2023/02/07 02:40:07;;;;;;;2.70;2.60;;;;;;;-2.37;100.00;103483.66;6005888;23;20023;-70
2023/02/07 02:42:43;;;;;;;3.17;3.08;;;;;;;-2.70;100.00;103441.88;6025099;23;20023;-70
2023/02/07 02:45:26;;;;;;;3.80;3.60;;;;;;;-2.75;100.00;103428.78;6006141;23;20027;-70
2023/02/07 02:47:53;;;;;;;2.70;2.60;;;;;;;-3.15;100.00;103390.06;6026334;23;20038;-70
2023/02/07 02:50:29;;;;;;;2.78;2.63;;;;;;;-2.54;100.00;103500.03;6030016;23;20460;-70
2023/02/07 02:52:56;;;;;;;2.72;2.63;;;;;;;-3.98;100.00;103276.56;5997931;23;20023;-70
2023/02/07 02:55:52;;;;;;;5.97;2.83;;;;;;;-2.63;100.00;103503.03;6026728;23;20053;-70
2023/02/07 02:58:36;;;;;;;2.70;2.58;;;;;;;-2.68;100.00;103497.69;6027463;23;20089;-70
2023/02/07 03:01:22;;;;;;;2.50;2.40;;;;;;;-3.28;100.00;103402.31;6003946;23;20411;-70
2023/02/07 03:04:13;;;;;;;2.50;2.40;;;;;;;-2.72;100.00;103500.03;6028112;23;20504;-70
2023/02/07 03:06:52;;;;;;;2.80;2.70;;;;;;;-3.12;100.00;103460.44;6026351;23;20027;-70
2023/02/07 03:09:48;;;;;;;2.75;2.65;;;;;;;-2.79;100.00;103503.09;6022215;23;20015;-72
2023/02/07 03:12:38;;;;;;;3.33;3.05;;;;;;;-2.86;100.00;103495.09;5970283;23;20234;-70
2023/02/07 03:15:08;;;;;;;3.22;3.13;;;;;;;-2.95;100.00;103496.34;6027493;23;20105;-70
2023/02/07 03:17:43;;;;;;;5.72;2.60;;;;;;;-3.70;100.00;103370.28;6001266;23;20035;-71
2023/02/07 03:20:25;;;;;;;2.60;2.50;;;;;;;-3.24;100.00;103459.84;6020724;23;20045;-70
2023/02/07 03:22:55;;;;;;;2.40;2.30;;;;;;;-3.43;100.00;103427.22;6023301;23;20556;-70
2023/02/07 03:25:23;;;;;;;3.50;3.30;;;;;;;-3.69;100.00;103377.16;6007592;23;20327;-70
2023/02/07 03:27:52;;;;;;;3.05;2.90;;;;;;;-3.80;100.00;103350.97;6023984;23;20031;-71
2023/02/07 03:30:21;;;;;;;4.35;4.15;;;;;;;-3.08;100.00;103474.31;6026500;23;20035;-71
2023/02/07 03:32:53;;;;;;;5.78;3.03;;;;;;;-3.36;100.00;103436.13;6019039;23;20063;-71
2023/02/07 03:35:41;;;;;;;2.30;2.20;;;;;;;-3.30;100.00;103436.44;6025319;23;20011;-70
2023/02/07 03:38:08;;;;;;;3.15;2.90;;;;;;;-3.21;100.00;103452.28;6022508;23;20064;-71
2023/02/07 03:40:39;;;;;;;5.03;2.85;;;;;;;-3.02;100.00;103470.34;6024910;23;20022;-71
2023/02/07 03:43:19;;;;;;;2.70;2.60;;;;;;;-3.02;100.00;103475.50;6027336;23;20595;-70
2023/02/07 03:45:45;;;;;;;3.22;3.03;;;;;;;-3.02;100.00;103474.63;5994206;23;20097;-70
2023/02/07 03:48:11;;;;;;;2.78;2.67;;;;;;;-5.25;100.00;103104.47;6017783;23;20102;-70
2023/02/07 03:50:38;;;;;;;2.60;2.50;;;;;;;-3.04;100.00;103487.38;5997035;23;20042;-70
2023/02/07 03:53:04;;;;;;;3.08;2.97;;;;;;;-3.06;100.00;103518.94;6022439;23;20375;-70
2023/02/07 03:55:31;;;;;;;2.15;2.05;;;;;;;-3.58;100.00;103396.56;6028174;23;20029;-70
2023/02/07 03:57:58;;;;;;;2.28;2.17;;;;;;;-3.49;100.00;103422.69;5999236;23;20027;-71
2023/02/07 04:00:25;;;;;;;2.85;2.65;;;;;;;-3.14;100.00;103485.16;6024759;23;20011;-70
2023/02/07 04:02:52;;;;;;;3.47;3.15;;;;;;;-3.57;100.00;103416.25;6000847;23;20514;-70
2023/02/07 04:05:19;;;;;;;4.22;3.20;;;;;;;-3.52;100.00;103434.47;6023797;23;20147;-70
2023/02/07 04:07:45;;;;;;;3.38;3.17;;;;;;;-3.96;100.00;103331.38;5996005;23;20043;-70
2023/02/07 04:10:12;;;;;;;3.65;3.33;;;;;;;-7.13;100.00;102779.44;6028618;23;20480;-70
2023/02/07 04:12:38;;;;;;;2.60;2.50;;;;;;;-3.77;100.00;103356.25;5996694;23;20027;-70
2023/02/07 04:15:06;;;;;;;2.40;2.30;;;;;;;-3.24;100.00;103437.59;6028345;23;20025;-70
2023/02/07 04:17:33;;;;;;;3.13;2.92;;;;;;;-3.22;100.00;103437.69;6000141;23;20019;-71
2023/02/07 04:20:00;;;;;;;3.08;2.90;;;;;;;-3.59;100.00;103381.06;6029813;23;20090;-69
2023/02/07 04:22:28;;;;;;;3.70;3.50;;;;;;;-3.47;100.00;103435.56;5991415;23;20036;-70
2023/02/07 04:24:54;;;;;;;2.78;2.63;;;;;;;-3.24;100.00;103472.69;6025686;23;20470;-70
2023/02/07 04:27:21;;;;;;;3.10;3.00;;;;;;;-3.59;100.00;103438.41;6007058;23;20050;-70
2023/02/07 04:29:47;;;;;;;3.05;2.85;;;;;;;-3.43;100.00;103453.81;6000250;23;20026;-70
2023/02/07 04:32:13;;;;;;;2.90;2.70;;;;;;;-4.55;100.00;103263.47;6016447;23;20035;-70
2023/02/07 04:34:40;;;;;;;3.83;3.63;;;;;;;-3.74;100.00;103382.06;6018873;23;20017;-70
2023/02/07 04:37:06;;;;;;;2.00;1.90;;;;;;;-3.79;100.00;103362.13;6027227;23;20043;-70
2023/02/07 04:39:33;;;;;;;4.22;3.58;;;;;;;-3.47;100.00;103410.81;5996269;23;20015;-70
2023/02/07 04:41:59;;;;;;;2.45;2.35;;;;;;;-3.44;100.00;103423.78;6025030;23;20101;-71
2023/02/07 04:44:26;;;;;;;2.58;2.38;;;;;;;-3.65;100.00;103386.78;6021866;23;20014;-71
2023/02/07 04:46:53;;;;;;;2.30;2.20;;;;;;;-4.93;100.00;103162.47;6025507;23;20047;-70
2023/02/07 04:49:22;;;;;;;2.90;2.80;;;;;;;-3.90;100.00;103341.94;6026152;23;20197;-70
2023/02/07 04:51:48;;;;;;;2.75;2.65;;;;;;;-3.28;100.00;103432.25;6005198;23;20031;-71
2023/02/07 04:54:17;;;;;;;3.35;3.15;;;;;;;-4.33;100.00;103242.34;6020630;23;20035;-70
2023/02/07 04:56:43;;;;;;;2.50;2.40;;;;;;;-3.50;100.00;103377.28;6025600;23;20660;-70
2023/02/07 04:59:10;;;;;;;2.85;2.65;;;;;;;-3.46;100.00;103366.34;6033674;23;20066;-70
2023/02/07 05:01:36;;;;;;;4.00;3.10;;;;;;;-3.19;100.00;103417.25;6025913;23;20031;-71
2023/02/07 05:04:03;;;;;;;8.02;3.55;;;;;;;-3.64;100.00;103319.25;6030352;23;20030;-71
2023/02/07 05:06:29;;;;;;;2.97;2.88;;;;;;;-3.36;100.00;103359.97;6020047;23;20093;-71
2023/02/07 05:08:55;;;;;;;2.50;2.40;;;;;;;-2.89;100.00;103440.97;6027595;23;20034;-71
2023/02/07 05:11:22;;;;;;;2.20;2.10;;;;;;;-3.45;100.00;103351.81;6001694;23;20023;-71
2023/02/07 05:13:49;;;;;;;2.10;2.00;;;;;;;-3.07;100.00;103422.13;6029494;23;20538;-71
2023/02/07 05:16:15;;;;;;;2.20;2.10;;;;;;;-3.14;100.00;103417.50;6025843;23;20345;-71
2023/02/07 05:18:41;;;;;;;2.90;2.80;;;;;;;-3.55;100.00;103368.44;6020078;23;20103;-71
2023/02/07 05:21:08;;;;;;;3.03;2.85;;;;;;;-3.08;100.00;103441.78;6024002;23;20023;-70
2023/02/07 05:23:34;;;;;;;2.13;2.03;;;;;;;-3.73;100.00;103337.63;6035707;23;20077;-71
2023/02/07 05:26:01;;;;;;;2.10;2.00;;;;;;;-3.79;100.00;103301.41;6054086;23;20418;-71
2023/02/07 05:28:27;;;;;;;2.15;2.05;;;;;;;-3.24;100.00;103380.22;6032971;23;20172;-71
2023/02/07 05:30:55;;;;;;;2.70;2.50;;;;;;;-2.92;100.00;103435.72;6058258;23;20034;-69
2023/02/07 05:33:21;;;;;;;3.13;2.90;;;;;;;-3.59;100.00;103324.59;6032867;23;20559;-71
2023/02/07 05:35:48;;;;;;;2.53;2.42;;;;;;;-3.00;100.00;103437.03;6031851;23;20022;-71
2023/02/07 05:38:17;;;;;;;2.10;2.00;;;;;;;-3.18;100.00;103390.78;6026042;23;20038;-71
2023/02/07 05:40:44;;;;;;;3.10;3.00;;;;;;;-3.11;100.00;103397.97;6061959;23;20433;-70
2023/02/07 05:43:11;;;;;;;3.55;3.25;;;;;;;-4.48;100.00;103172.38;6022238;23;20049;-70
2023/02/07 05:45:38;;;;;;;3.38;3.13;;;;;;;-3.67;100.00;103335.38;6057180;23;20029;-72
2023/02/07 05:48:05;;;;;;;2.50;2.38;;;;;;;-3.73;100.00;103362.41;6032772;23;20610;-70
2023/02/07 05:50:32;;;;;;;2.85;2.70;;;;;;;-3.28;100.00;103430.56;6055278;23;20022;-71
2023/02/07 05:52:58;;;;;;;5.82;3.28;;;;;;;-4.32;100.00;103249.22;6064275;23;20028;-71
2023/02/07 05:55:25;;;;;;;2.20;2.10;;;;;;;-3.78;100.00;103345.94;6053526;23;20027;-71
2023/02/07 05:57:51;;;;;;;2.95;2.75;;;;;;;-3.55;100.00;103401.81;6026739;23;20034;-71
2023/02/07 06:00:18;;;;;;;2.40;2.30;;;;;;;-3.95;100.00;103334.81;6045687;23;20024;-70
2023/02/07 06:02:45;;;;;;;3.50;3.20;;;;;;;-3.27;100.00;103437.47;6046858;23;20030;-71
2023/02/07 06:05:15;;;;;;;2.78;2.67;;;;;;;-3.22;100.00;103427.41;6020370;23;20358;-71
2023/02/07 06:07:43;;;;;;;3.30;3.13;;;;;;;-3.29;100.00;103394.53;6055222;23;20033;-71
2023/02/07 06:10:10;;;;;;;2.50;2.40;;;;;;;-3.45;100.00;103393.78;6031556;23;20037;-71
2023/02/07 06:12:39;;;;;;;2.55;2.45;;;;;;;-3.34;100.00;103403.72;5998066;23;20090;-71
2023/02/07 06:15:06;;;;;;;2.30;2.20;;;;;;;-3.38;100.00;103371.84;6061121;23;20243;-71
2023/02/07 06:17:32;;;;;;;2.03;1.92;;;;;;;-3.19;100.00;103408.69;6054197;23;20516;-71
2023/02/07 06:19:58;;;;;;;2.53;2.42;;;;;;;-2.89;100.00;103446.13;6034402;23;20032;-71
2023/02/07 06:22:25;;;;;;;2.65;2.55;;;;;;;-3.02;100.00;103443.78;6003002;23;20040;-71
2023/02/07 06:24:52;;;;;;;2.13;2.03;;;;;;;-3.05;100.00;103448.75;6051985;23;20689;-70
2023/02/07 06:27:18;;;;;;;2.45;2.35;;;;;;;-3.07;100.00;103432.41;6031726;23;20026;-71
2023/02/07 06:29:45;;;;;;;3.03;2.75;;;;;;;-3.10;100.00;103434.84;6026192;23;20034;-71
2023/02/07 06:32:11;;;;;;;3.92;3.00;;;;;;;-3.67;100.00;103373.88;6014723;23;20026;-70
2023/02/07 06:34:37;;;;;;;2.67;2.58;;;;;;;-4.32;100.00;103268.88;6050666;23;20041;-71
2023/02/07 06:37:04;;;;;;;2.92;2.83;;;;;;;-3.51;100.00;103420.81;6038501;23;20123;-71
2023/02/07 06:39:30;;;;;;;2.20;2.10;;;;;;;-3.38;100.00;103458.28;5997215;23;20019;-71
2023/02/07 06:41:57;;;;;;;2.20;2.10;;;;;;;-3.47;100.00;103458.69;6030189;23;20046;-71
2023/02/07 06:44:23;;;;;;;2.47;2.33;;;;;;;-4.52;100.00;103307.16;6019027;23;20065;-71
2023/02/07 06:46:49;;;;;;;1.90;1.88;;;;;;;-3.99;100.00;103399.59;6029973;23;20054;-71
2023/02/07 06:49:16;;;;;;;2.38;2.28;;;;;;;-3.98;100.00;103421.88;6003798;23;20536;-71
2023/02/07 06:51:42;;;;;;;2.90;2.80;;;;;;;-3.91;100.00;103439.34;6008069;23;20032;-71
2023/02/07 06:54:09;;;;;;;2.70;2.60;;;;;;;-4.21;100.00;103407.06;6025442;23;20025;-71
2023/02/07 06:56:36;;;;;;;2.40;2.30;;;;;;;-3.70;100.00;103489.19;6002776;23;20109;-71
2023/02/07 06:59:03;;;;;;;2.78;2.58;;;;;;;-4.07;100.00;103436.00;6047459;23;20474;-72
2023/02/07 07:01:30;;;;;;;4.57;3.42;;;;;;;-4.28;100.00;103393.84;6002852;23;20023;-71
2023/02/07 07:03:56;;;;;;;2.75;2.55;;;;;;;-3.79;100.00;103495.53;6027196;23;20029;-71
2023/02/07 07:06:23;;;;;;;19.23;3.50;;;;;;;-3.82;100.00;103488.56;6032442;23;20214;-71
2023/02/07 07:08:50;;;;;;;2.53;2.42;;;;;;;-3.84;100.00;103497.88;6023035;23;20035;-71
2023/02/07 07:11:17;;;;;;;3.25;2.97;;;;;;;-4.39;100.00;103395.81;6023614;23;20237;-72
2023/02/07 07:13:44;;;;;;;2.30;2.20;;;;;;;-4.37;100.00;103408.72;6027124;23;20567;-73
2023/02/07 07:16:10;;;;;;;2.55;2.45;;;;;;;-4.31;100.00;103411.59;6004349;23;20100;-73
2023/02/07 07:18:39;;;;;;;3.55;3.35;;;;;;;-4.24;100.00;103429.09;6028476;23;20051;-71
2023/02/07 07:21:09;;;;;;;2.60;2.45;;;;;;;-3.79;100.00;103516.06;6030134;23;20620;-71
2023/02/07 07:23:35;;;;;;;5.82;2.55;;;;;;;-4.18;100.00;103459.31;6026188;23;20086;-72
2023/02/07 07:26:02;;;;;;;3.03;2.92;;;;;;;-4.19;100.00;103448.13;6055999;23;20021;-72
2023/02/07 07:28:28;;;;;;;3.50;3.17;;;;;;;-4.01;100.00;103489.28;6026297;23;20026;-72
2023/02/07 07:31:01;;;;;;;4.00;2.55;;;;;;;-3.93;100.00;103479.41;6034062;23;20143;-71
2023/02/07 07:33:28;;;;;;;2.22;2.13;;;;;;;-4.26;100.00;103429.00;6052061;23;20018;-71
2023/02/07 07:35:59;;;;;;;2.00;1.90;;;;;;;-3.65;100.00;103527.91;6050004;23;20222;-73
2023/02/07 07:38:26;;;;;;;2.55;2.45;;;;;;;-3.63;100.00;103537.50;6025010;23;20038;-74
2023/02/07 07:40:53;;;;;;;2.88;2.67;;;;;;;-3.71;100.00;103520.81;6053231;23;20033;-74
2023/02/07 07:43:19;;;;;;;2.30;2.20;;;;;;;-3.98;100.00;103489.44;6038410;23;20057;-71
2023/02/07 07:45:51;;;;;;;2.20;2.10;;;;;;;-4.08;100.00;103467.56;6052034;23;20018;-71
2023/02/07 07:48:19;;;;;;;2.20;2.10;;;;;;;-4.12;100.00;103455.38;6029180;23;20026;-72
2023/02/07 07:50:45;;;;;;;2.55;2.45;;;;;;;-4.27;100.00;103411.88;6054724;23;20014;-72
2023/02/07 07:53:12;;;;;;;2.92;2.83;;;;;;;-3.62;100.00;103523.84;6054834;23;20291;-71
2023/02/07 07:55:38;;;;;;;2.88;2.67;;;;;;;-4.07;100.00;103428.31;6050863;23;20638;-71
2023/02/07 07:58:04;;;;;;;2.67;2.53;;;;;;;-3.34;100.00;103545.81;6056517;23;20020;-72
2023/02/07 08:00:31;;;;;;;2.50;2.40;;;;;;;-3.34;100.00;103529.53;6046821;23;20022;-71
2023/02/07 08:02:57;;;;;;;2.40;2.30;;;;;;;-3.58;100.00;103491.53;6028280;23;20034;-71
2023/02/07 08:05:24;;;;;;;2.30;2.20;;;;;;;-4.30;100.00;103356.97;6041803;23;20417;-71
2023/02/07 08:07:50;;;;;;;2.88;2.78;;;;;;;-3.53;100.00;103468.63;6030370;23;20030;-70
2023/02/07 08:10:17;;;;;;;2.60;2.40;;;;;;;-3.04;100.00;103548.16;6049676;23;20085;-71
2023/02/07 08:12:43;;;;;;;2.63;2.53;;;;;;;-2.99;100.00;103549.25;6055066;23;20101;-71
2023/02/07 08:15:10;;;;;;;2.85;2.75;;;;;;;-3.18;100.00;103508.94;6055320;23;20366;-71
2023/02/07 08:17:36;;;;;;;2.17;2.08;;;;;;;-2.86;100.00;103538.78;6036338;23;20378;-71
2023/02/07 08:20:04;;;;;;;2.80;2.60;;;;;;;-3.12;100.00;103482.69;6053274;23;20029;-70
2023/02/07 08:22:30;;;;;;;2.35;2.25;;;;;;;-2.79;100.00;103521.09;6052592;23;20563;-71
2023/02/07 08:24:57;;;;;;;2.75;2.65;;;;;;;-2.80;100.00;103502.22;6030539;23;20010;-72
2023/02/07 08:27:23;;;;;;;2.97;2.78;;;;;;;-2.76;100.00;103490.41;6030711;23;20039;-72
2023/02/07 08:29:49;;;;;;;2.30;2.20;;;;;;;-2.39;100.00;103533.28;6055817;23;20030;-71
2023/02/07 08:32:16;;;;;;;2.40;2.30;;;;;;;-3.62;100.00;103333.91;6028050;23;20097;-71
2023/02/07 08:34:43;;;;;;;2.83;2.63;;;;;;;-3.79;100.00;103287.72;6061757;23;20015;-71
2023/02/07 08:37:10;;;;;;;3.13;2.92;;;;;;;-2.79;100.00;103433.72;6028964;23;20098;-71
2023/02/07 08:39:36;;;;;;;3.45;3.25;;;;;;;-2.17;100.00;103518.03;6028609;23;20051;-71
2023/02/07 08:42:07;;;;;;;3.20;2.90;;;;;;;-3.14;100.00;103353.31;6061344;23;20042;-71
2023/02/07 08:44:34;;;;;;;2.40;2.30;;;;;;;-1.80;100.00;103545.44;6061693;23;20128;-72
2023/02/07 08:47:01;;;;;;;2.13;2.03;;;;;;;-1.69;100.00;103559.66;6061312;23;20095;-71
2023/02/07 08:49:27;;;;;;;2.53;2.42;;;;;;;-1.61;100.00;103548.00;6059478;23;20089;-70
2023/02/07 08:51:54;;;;;;;2.70;2.53;;;;;;;-1.74;100.00;103522.56;6061276;23;20515;-70
2023/02/07 08:54:21;;;;;;;2.40;2.30;;;;;;;-1.83;100.00;103473.22;6056398;23;20289;-71
2023/02/07 08:56:47;;;;;;;2.30;2.20;;;;;;;-1.54;100.00;103489.94;6037354;23;20476;-71
2023/02/07 08:59:13;;;;;;;2.30;2.20;;;;;;;-1.50;100.00;103472.94;6057496;23;20062;-72
2023/02/07 09:01:40;;;;;;;2.50;2.40;;;;;;;-0.92;100.00;103559.50;6034610;23;20058;-70
2023/02/07 09:04:08;;;;;;;3.17;2.85;;;;;;;-1.09;100.00;103499.53;6059814;23;20026;-71
2023/02/07 09:06:35;;;;;;;2.83;2.72;;;;;;;-0.94;100.00;103491.53;6027721;23;20026;-71
2023/02/07 09:09:01;;;;;;;2.20;2.10;;;;;;;-0.90;100.00;103468.56;6062337;23;20115;-71
2023/02/07 09:11:27;;;;;;;2.95;2.85;;;;;;;-0.66;100.00;103478.06;6051491;23;20033;-71
2023/02/07 09:13:54;;;;;;;3.72;3.45;;;;;;;-0.25;100.00;103530.38;6042989;23;20022;-71
2023/02/07 09:16:22;;;;;;;3.25;3.03;;;;;;;-0.50;100.00;103462.38;6052640;23;20470;-72
2023/02/07 09:18:50;;;;;;;2.70;2.60;;;;;;;-0.47;100.00;103444.41;6026463;23;20053;-71
2023/02/07 09:21:17;;;;;;;2.78;2.67;;;;;;;-0.21;100.00;103447.97;6056830;23;20037;-72
2023/02/07 09:23:44;;;;;;;3.10;2.78;;;;;;;0.16;100.00;103487.13;6030142;23;20029;-71
2023/02/07 09:26:19;;;;;;;7.28;2.92;;;;;;;-0.10;100.00;103437.16;6028524;23;20094;-71
2023/02/07 09:28:46;;;;;;;3.90;3.70;;;;;;;0.25;100.00;103510.72;6056834;23;20373;-72
2023/02/07 09:31:13;;;;;;;3.17;2.97;;;;;;;0.34;100.00;103486.91;6061645;23;20503;-71
2023/02/07 09:33:41;;;;;;;3.00;2.90;;;;;;;0.55;100.00;103500.59;6028323;23;20022;-72
2023/02/07 09:36:22;;;;;;;4.22;3.92;;;;;;;0.05;100.00;103413.59;6053544;23;20204;-76
2023/02/07 09:38:48;;;;;;;3.75;3.55;;;;;;;0.08;100.00;103396.53;6055914;23;20026;-73
2023/02/07 09:41:24;;;;;;;4.57;4.18;;;;;;;0.35;100.00;103416.38;6036879;23;20035;-71
2023/02/07 09:44:00;;;;;;;3.88;2.85;;;;;;;0.96;100.00;103489.88;6056172;23;20034;-71
2023/02/07 09:46:35;;;;;;;3.60;3.35;;;;;;;0.95;100.00;103472.63;6056229;23;20029;-71
2023/02/07 09:49:39;;;;;;;3.65;3.35;;;;;;;1.12;99.21;103474.06;6052443;23;20457;-71
2023/02/07 09:52:13;;;;;;;2.90;2.80;;;;;;;0.97;97.18;103422.72;6030906;23;20101;-71
2023/02/07 09:54:44;;;;;;;2.80;2.70;;;;;;;1.01;94.67;103434.03;6030505;23;20082;-72
2023/02/07 09:57:18;;;;;;;2.92;2.80;;;;;;;1.14;93.70;103430.09;6058625;23;20025;-72
2023/02/07 10:00:02;;;;;;;2.60;2.50;;;;;;;1.25;92.30;103402.00;6007015;23;20290;-71
2023/02/07 10:02:35;;;;;;;2.83;2.63;;;;;;;1.55;89.77;103426.19;6028618;23;20026;-71
2023/02/07 10:05:13;;;;;;;3.25;3.13;;;;;;;1.21;89.00;103353.59;6059113;23;20032;-71
2023/02/07 10:07:39;;;;;;;2.85;2.65;;;;;;;1.35;88.46;103357.47;6034084;23;20438;-71
2023/02/07 10:10:14;;;;;;;5.68;3.72;;;;;;;1.16;87.20;103302.63;6029101;23;20049;-71
2023/02/07 10:12:59;;;;;;;2.85;2.67;;;;;;;1.83;87.06;103397.63;6041679;23;20025;-70
2023/02/07 10:15:39;;;;;;;2.83;2.72;;;;;;;1.97;85.57;103401.47;6056334;23;20022;-70
2023/02/07 10:18:28;;;;;;;3.20;3.00;;;;;;;1.97;83.84;103366.09;6032737;23;20029;-70
2023/02/07 10:21:06;;;;;;;3.40;3.10;;;;;;;2.13;82.08;103366.50;6047730;23;20061;-71
2023/02/07 10:24:17;;;;;;;3.00;2.90;;;;;;;2.17;82.31;103368.31;6000421;23;20049;-71
2023/02/07 10:27:02;;;;;;;3.92;3.72;;;;;;;1.44;80.71;103180.88;6042641;23;20244;-74
2023/02/07 10:29:57;;;;;;;3.05;2.95;;;;;;;2.21;79.22;103295.03;6054184;23;20026;-71
2023/02/07 10:32:27;;;;;;;3.25;3.13;;;;;;;2.58;78.94;103308.84;6004613;23;20292;-71
2023/02/07 10:34:58;;;;;;;4.07;3.85;;;;;;;2.54;77.71;103281.09;6034889;23;20089;-71
2023/02/07 10:37:28;;;;;;;4.40;3.50;;;;;;;2.47;76.33;103230.84;5999658;23;20130;-71
2023/02/07 10:40:29;;;;;;;5.20;3.10;;;;;;;2.96;75.88;103275.09;6059513;23;20030;-71
2023/02/07 10:43:02;;;;;;;4.75;4.32;;;;;;;2.50;75.11;103179.06;6028982;23;20081;-71
2023/02/07 10:45:29;;;;;;;4.10;3.80;;;;;;;2.28;73.54;103125.03;6054216;23;20138;-71
2023/02/07 10:47:57;;;;;;;7.43;4.15;;;;;;;2.98;72.70;103216.34;6054033;23;20030;-71
2023/02/07 10:50:25;;;;;;;4.25;3.95;;;;;;;2.23;72.65;103070.53;6014423;23;20018;-71
2023/02/07 10:52:57;;;;;;;3.60;3.40;;;;;;;2.91;71.89;103150.53;6051665;23;20553;-72
2023/02/07 10:55:40;;;;;;;6.53;4.95;;;;;;;2.81;69.89;103107.09;6028535;23;20073;-71
2023/02/07 10:58:13;;;;;;;3.63;3.33;;;;;;;2.68;71.27;103068.81;6032979;23;20430;-71
2023/02/07 11:00:51;;;;;;;4.07;3.72;;;;;;;2.74;69.51;103055.97;6055683;23;20025;-72
2023/02/07 11:03:23;;;;;;;4.05;3.85;;;;;;;3.19;68.60;103084.44;6027324;23;20183;-72
2023/02/07 11:05:56;;;;;;;3.92;3.72;;;;;;;2.89;66.54;102991.41;6056467;23;20022;-72
2023/02/07 11:08:28;;;;;;;3.50;3.30;;;;;;;3.26;65.99;103036.09;6049694;23;20096;-72
2023/02/07 11:10:57;;;;;;;3.70;3.50;;;;;;;3.59;66.34;103076.44;6043121;23;20366;-71
2023/02/07 11:13:29;;;;;;;6.97;4.47;;;;;;;3.54;66.80;103040.00;6053817;23;20014;-71
2023/02/07 11:16:00;;;;;;;4.50;3.60;;;;;;;3.32;66.06;102989.47;6065965;23;20030;-71
2023/02/07 11:18:36;;;;;;;4.20;3.72;;;;;;;3.18;66.14;102957.28;6057891;23;20027;-71
2023/02/07 11:21:29;;;;;;;3.92;3.72;;;;;;;3.66;64.55;102983.91;6063436;23;20013;-70
2023/02/07 11:24:05;;;;;;;3.90;3.65;;;;;;;3.39;64.02;102908.28;6046997;23;20041;-70
2023/02/07 11:26:34;;;;;;;3.53;3.33;;;;;;;3.55;63.46;102909.34;6061430;23;20033;-70
2023/02/07 11:29:12;;;;;;;4.38;4.07;;;;;;;3.40;63.33;102870.22;6056378;23;20175;-70
2023/02/07 11:31:41;;;;;;;4.30;4.03;;;;;;;3.45;63.01;102859.88;6035010;23;20041;-70
2023/02/07 11:34:23;;;;;;;5.40;5.10;;;;;;;3.71;62.28;102881.84;6056649;23;20025;-72